Time;durP1;ratioP1;P1;durP2;ratioP2;P2;SDS_P1;SDS_P2;PMS_P1;PMS_P2;Temp;Humidity;BMP_temperature;BMP_pressure;BME280_temperature;BME280_humidity;BME280_pressure;Samples;Min_cycle;Max_cycle;Signal;HPM_P1;HPM_P2
2021/12/16 00:07:57;;;;;;;6.23;3.50;;;7.60;99.90;7.50;102010.00;;;;5013106;27;101359;-69
2021/12/16 00:10:30;;;;;;;5.33;3.57;;;7.70;99.90;7.50;102005.00;;;;5015047;27;93305;-68
2021/12/16 00:32:20;;;;;;;3.40;2.80;;;7.50;99.90;7.40;102009.00;;;;5016522;27;93348;-67
2021/12/16 00:34:49;;;;;;;3.77;2.60;;;7.60;99.90;7.40;102003.00;;;;5035970;27;92775;-67
2021/12/16 00:37:15;;;;;;;4.80;3.53;;;7.50;99.90;7.40;102024.00;;;;5015383;27;92975;-69
2021/12/16 00:39:41;;;;;;;5.53;3.33;;;7.50;99.90;7.40;102015.00;;;;5034792;27;93870;-68
2021/12/16 00:42:16;;;;;;;3.90;3.10;;;7.50;99.90;7.40;102025.00;;;;5034270;27;93386;-69
2021/12/16 00:47:28;;;;;;;4.13;2.87;;;7.50;99.90;7.40;102022.00;;;;5031573;27;98328;-66
2021/12/16 00:50:04;;;;;;;5.70;2.93;;;7.50;99.90;7.40;102028.00;;;;5018083;27;92623;-68
2021/12/16 00:57:42;;;;;;;6.33;3.43;;;7.50;99.90;7.30;102024.00;;;;5032727;27;92877;-70
2021/12/16 01:00:13;;;;;;;7.53;3.77;;;7.50;99.90;7.30;102025.00;;;;5034516;27;93136;-68
2021/12/16 01:02:54;;;;;;;5.43;3.30;;;7.40;99.90;7.30;102027.00;;;;5034324;27;93825;-68
2021/12/16 01:08:20;;;;;;;7.93;3.57;;;7.40;99.90;7.20;102034.00;;;;5032943;27;92907;-69
2021/12/16 01:36:05;;;;;;;7.00;3.60;;;7.10;99.90;6.90;102046.00;;;;5010686;27;93192;-69
2021/12/16 01:39:09;;;;;;;4.20;3.20;;;7.00;99.90;6.80;102048.00;;;;5013986;27;92170;-68
2021/12/16 01:42:18;;;;;;;6.83;3.87;;;7.00;99.90;6.70;102059.00;;;;5013994;27;92680;-70
2021/12/16 01:47:19;;;;;;;5.57;3.17;;;6.80;99.90;6.70;102056.00;;;;5009740;27;93877;-70
2021/12/16 01:52:48;;;;;;;7.33;4.40;;;6.80;99.90;6.70;102043.00;;;;5031873;27;92967;-69
2021/12/16 01:55:25;;;;;;;6.87;4.13;;;6.80;99.90;6.70;102055.00;;;;4981834;27;95026;-70
2021/12/16 01:57:57;;;;;;;7.00;4.90;;;6.80;99.90;6.70;102047.00;;;;5013149;27;92736;-70
2021/12/16 02:00:44;;;;;;;9.40;4.73;;;6.80;99.90;6.70;102045.00;;;;5013675;27;92953;-70
2021/12/16 02:03:10;;;;;;;8.13;4.73;;;6.80;99.90;6.70;102042.00;;;;5012440;27;92919;-70
2021/12/16 02:08:22;;;;;;;6.07;4.37;;;6.90;99.90;6.80;102039.00;;;;4994741;27;92916;-71
2021/12/16 02:11:04;;;;;;;7.07;4.57;;;6.90;99.90;6.80;102044.00;;;;5013602;27;92734;-70
2021/12/16 02:35:23;;;;;;;6.10;3.97;;;7.20;99.90;7.10;102032.00;;;;5030696;27;92886;-70
2021/12/16 02:37:48;;;;;;;9.43;4.93;;;7.20;99.90;7.10;102049.00;;;;5032858;27;93236;-69
2021/12/16 02:40:17;;;;;;;8.03;5.10;;;7.20;99.90;7.10;102038.00;;;;5031979;27;93668;-70
2021/12/16 02:43:01;;;;;;;8.37;4.90;;;7.30;99.90;7.10;102045.00;;;;5032969;27;92703;-70
2021/12/16 02:50:53;;;;;;;7.17;4.30;;;7.30;99.90;7.20;102039.00;;;;5009602;27;92848;-69
2021/12/16 02:53:18;;;;;;;10.27;4.67;;;7.30;99.90;7.20;102031.00;;;;5012700;27;92694;-69
2021/12/16 02:55:46;;;;;;;6.60;4.13;;;7.30;99.90;7.20;102038.00;;;;5012246;27;108874;-70
2021/12/16 02:58:14;;;;;;;9.60;6.07;;;7.30;99.90;7.20;102032.00;;;;4995026;27;94507;-68
2021/12/16 03:00:47;;;;;;;9.83;5.33;;;7.40;99.90;7.20;102042.00;;;;5011847;27;107284;-70
2021/12/16 03:03:12;;;;;;;9.03;5.83;;;7.40;99.90;7.30;102041.00;;;;5012891;27;92844;-69
2021/12/16 03:05:39;;;;;;;6.27;4.67;;;7.40;99.90;7.30;102043.00;;;;5012124;27;109008;-69
2021/12/16 03:08:08;;;;;;;7.97;5.20;;;7.40;99.90;7.30;102040.00;;;;5011864;27;93665;-70
2021/12/16 03:11:02;;;;;;;8.40;5.73;;;7.50;99.90;7.30;102039.00;;;;5012861;27;93139;-69
2021/12/16 03:13:36;;;;;;;8.73;5.23;;;7.50;99.90;7.40;102038.00;;;;5020746;27;92981;-68
2021/12/16 03:16:21;;;;;;;20.67;6.27;;;7.40;99.90;7.40;102044.00;;;;5015776;27;92582;-69
2021/12/16 03:19:10;;;;;;;9.07;6.20;;;7.50;99.90;7.40;102029.00;;;;5016073;27;93285;-70
2021/12/16 03:21:43;;;;;;;8.70;5.23;;;7.50;99.90;7.40;102041.00;;;;5033130;27;92902;-69
2021/12/16 03:30:02;;;;;;;8.60;5.53;;;7.50;99.90;7.50;102029.00;;;;5011642;27;93154;-69
2021/12/16 03:38:07;;;;;;;12.47;6.33;;;7.60;99.90;7.60;102036.00;;;;5017883;27;93471;-69
2021/12/16 03:40:34;;;;;;;12.07;6.53;;;7.70;99.90;7.60;102029.00;;;;5035822;27;106908;-69
2021/12/16 03:43:14;;;;;;;12.33;6.57;;;7.70;99.90;7.60;102034.00;;;;5036033;27;93867;-69
2021/12/16 03:49:09;;;;;;;11.87;6.90;;;7.80;99.90;7.70;102037.00;;;;5016249;27;93066;-69
2021/12/16 03:51:48;;;;;;;10.90;6.73;;;7.80;99.90;7.70;102040.00;;;;5017518;27;92321;-69
2021/12/16 03:54:31;;;;;;;10.23;6.27;;;7.80;99.90;7.80;102047.00;;;;5017554;27;92989;-69
2021/12/16 03:57:00;;;;;;;11.50;6.50;;;7.90;99.90;7.80;102046.00;;;;5035798;27;93087;-69
2021/12/16 03:59:30;;;;;;;11.10;5.73;;;7.90;99.90;7.90;102045.00;;;;5016984;27;95497;-70
2021/12/16 04:02:04;;;;;;;10.30;5.77;;;8.00;99.90;7.90;102056.00;;;;5015749;27;108201;-70
2021/12/16 04:04:30;;;;;;;12.87;5.60;;;8.00;99.90;7.90;102056.00;;;;5035321;27;94256;-68
2021/12/16 04:06:56;;;;;;;13.27;7.17;;;8.00;99.90;7.90;102042.00;;;;5035524;27;92732;-70
2021/12/16 04:09:22;;;;;;;11.13;6.37;;;8.00;99.90;8.00;102052.00;;;;5016540;27;92902;-68
2021/12/16 04:11:57;;;;;;;12.37;6.77;;;8.10;99.90;8.00;102055.00;;;;5016918;27;93269;-68
2021/12/16 04:14:24;;;;;;;9.30;5.90;;;8.10;99.90;8.00;102058.00;;;;5014311;27;94813;-70
2021/12/16 04:16:55;;;;;;;10.60;6.07;;;8.10;99.90;8.00;102062.00;;;;5035818;27;92055;-68
2021/12/16 04:19:27;;;;;;;15.37;6.20;;;8.10;99.90;8.10;102062.00;;;;5036142;27;92689;-69
2021/12/16 04:22:18;;;;;;;9.93;6.20;;;8.20;99.90;8.00;102052.00;;;;5016194;27;92727;-70
2021/12/16 04:24:47;;;;;;;11.77;6.10;;;8.20;99.90;8.10;102068.00;;;;5016271;27;93985;-70
2021/12/16 04:27:16;;;;;;;8.37;5.90;;;8.20;99.90;8.10;102060.00;;;;5035127;27;92682;-68
2021/12/16 04:29:43;;;;;;;8.90;5.30;;;8.20;99.90;8.10;102057.00;;;;5035065;27;98793;-69
2021/12/16 04:32:09;;;;;;;10.73;6.30;;;8.20;99.90;8.10;102063.00;;;;5035120;27;93828;-68
2021/12/16 04:34:35;;;;;;;12.60;6.20;;;8.20;99.90;8.10;102051.00;;;;5015185;27;121196;-69
2021/12/16 04:37:02;;;;;;;14.20;5.97;;;8.20;99.90;8.10;102064.00;;;;5034366;27;110655;-70
2021/12/16 04:39:31;;;;;;;11.63;5.97;;;8.20;99.90;8.10;102058.00;;;;5015831;27;96105;-70
2021/12/16 04:41:58;;;;;;;13.77;6.33;;;8.20;99.90;8.00;102058.00;;;;5022612;27;105359;-70
2021/12/16 04:44:27;;;;;;;12.23;6.70;;;8.20;99.90;8.10;102056.00;;;;4996348;27;92914;-68
2021/12/16 04:46:53;;;;;;;13.00;6.60;;;8.10;99.90;8.00;102057.00;;;;5014652;27;92841;-69
2021/12/16 04:49:19;;;;;;;10.43;5.53;;;8.10;99.90;8.00;102056.00;;;;4995255;27;93710;-68
2021/12/16 04:51:52;;;;;;;12.50;6.43;;;8.10;99.90;8.00;102054.00;;;;4995299;27;123834;-69
2021/12/16 04:54:19;;;;;;;10.53;7.13;;;8.20;99.90;8.00;102056.00;;;;5014122;27;93547;-70
2021/12/16 04:56:47;;;;;;;10.03;6.70;;;8.20;99.90;8.10;102055.00;;;;5016532;27;92914;-69
2021/12/16 04:59:18;;;;;;;9.57;6.50;;;8.10;99.90;8.10;102062.00;;;;5015880;27;93000;-70
2021/12/16 05:01:50;;;;;;;9.50;6.57;;;8.20;99.90;8.00;102058.00;;;;5034279;27;93259;-69
2021/12/16 05:04:16;;;;;;;11.93;7.27;;;8.10;99.90;8.00;102051.00;;;;5034669;27;93851;-68
2021/12/16 05:06:42;;;;;;;11.00;7.23;;;8.10;99.90;8.00;102050.00;;;;5034826;27;96397;-71
2021/12/16 05:09:11;;;;;;;10.30;6.60;;;8.10;99.90;8.00;102060.00;;;;5029509;27;93445;-70
2021/12/16 05:11:37;;;;;;;10.07;7.00;;;8.10;99.90;8.00;102060.00;;;;5014222;27;92890;-68
2021/12/16 05:14:06;;;;;;;15.40;8.13;;;8.20;99.90;8.00;102061.00;;;;5012024;27;121584;-68
2021/12/16 05:16:33;;;;;;;12.13;6.63;;;8.10;99.90;8.00;102065.00;;;;5013832;27;102824;-70
2021/12/16 05:18:59;;;;;;;11.83;6.50;;;8.10;99.90;8.00;102062.00;;;;5014192;27;92575;-68
2021/12/16 05:26:43;;;;;;;12.57;7.13;;;8.10;99.90;8.00;102074.00;;;;5031759;27;92890;-67
2021/12/16 05:29:09;;;;;;;11.93;7.40;;;8.20;99.90;8.10;102063.00;;;;5014010;27;94545;-67
2021/12/16 05:31:36;;;;;;;14.93;8.30;;;8.20;99.90;8.00;102062.00;;;;5014782;27;92306;-69
2021/12/16 05:34:04;;;;;;;11.43;7.17;;;8.20;99.90;8.00;102072.00;;;;5013700;27;94541;-69
2021/12/16 05:36:30;;;;;;;10.90;7.40;;;8.10;99.90;8.00;102087.00;;;;5014184;27;94043;-71
2021/12/16 05:38:57;;;;;;;15.17;9.73;;;8.10;99.90;7.90;102081.00;;;;5033798;27;93913;-70
2021/12/16 05:41:23;;;;;;;21.03;9.30;;;8.10;99.90;7.90;102084.00;;;;5034119;27;103329;-68
2021/12/16 05:43:50;;;;;;;15.10;8.13;;;8.10;99.90;7.80;102076.00;;;;5034209;27;93897;-68
2021/12/16 05:46:19;;;;;;;13.77;8.57;;;8.00;99.90;7.80;102079.00;;;;5033902;27;97286;-68
2021/12/16 05:48:48;;;;;;;19.70;8.33;;;7.90;99.90;7.80;102090.00;;;;5034440;27;92802;-69
2021/12/16 05:51:29;;;;;;;19.30;9.47;;;7.90;99.90;7.70;102087.00;;;;5014294;27;93058;-69
2021/12/16 05:53:55;;;;;;;13.33;8.83;;;7.90;99.90;7.70;102101.00;;;;5015227;27;92868;-69
2021/12/16 05:56:21;;;;;;;18.13;9.10;;;7.80;99.90;7.70;102090.00;;;;5034484;27;97914;-70
2021/12/16 05:58:47;;;;;;;19.80;9.33;;;7.80;99.90;7.60;102092.00;;;;5034212;27;92776;-69
2021/12/16 06:01:23;;;;;;;14.40;8.83;;;7.70;99.90;7.60;102092.00;;;;5014569;27;92899;-70
2021/12/16 06:03:49;;;;;;;19.27;10.27;;;7.70;99.90;7.60;102098.00;;;;5015289;27;94003;-68
2021/12/16 06:06:16;;;;;;;12.73;8.43;;;7.70;99.90;7.60;102098.00;;;;5030608;27;96379;-69
2021/12/16 06:08:43;;;;;;;15.23;9.23;;;7.70;99.90;7.60;102103.00;;;;5034277;27;92846;-69
2021/12/16 06:11:19;;;;;;;13.60;8.17;;;8.20;99.90;7.50;102098.00;;;;5034004;27;94612;-69
2021/12/16 06:14:03;;;;;;;13.83;8.63;;;7.70;99.90;7.50;102103.00;;;;5033697;27;93876;-68
2021/12/16 06:22:48;;;;;;;18.67;12.13;;;7.60;99.90;7.50;102116.00;;;;4940511;27;92366;-68
2021/12/16 06:28:05;;;;;;;20.70;11.43;;;7.60;99.90;7.50;102106.00;;;;5031929;27;92944;-69
2021/12/16 06:30:43;;;;;;;16.47;10.73;;;7.60;99.90;7.50;102103.00;;;;5032951;27;93663;-69
2021/12/16 06:33:14;;;;;;;19.80;10.07;;;7.60;99.90;7.50;102112.00;;;;5007591;27;92773;-69
2021/12/16 06:35:41;;;;;;;17.00;11.60;;;7.60;99.90;7.50;102103.00;;;;4994426;27;93094;-69
2021/12/16 06:38:07;;;;;;;19.43;11.77;;;7.60;99.90;7.60;102096.00;;;;4993469;27;92749;-70
2021/12/16 06:40:33;;;;;;;20.80;11.53;;;7.60;99.90;7.60;102113.00;;;;4976428;27;108853;-69
2021/12/16 06:43:01;;;;;;;22.20;11.37;;;7.70;99.90;7.60;102119.00;;;;5011618;27;123576;-69
2021/12/16 06:45:31;;;;;;;20.23;12.07;;;7.70;99.90;7.60;102114.00;;;;5013434;27;93224;-71
2021/12/16 06:48:03;;;;;;;14.00;10.00;;;7.70;99.90;7.50;102118.00;;;;4994194;27;92205;-69
2021/12/16 06:53:04;;;;;;;17.03;11.20;;;7.60;99.90;7.50;102115.00;;;;5010036;27;93004;-70
2021/12/16 06:55:39;;;;;;;20.97;12.07;;;7.60;99.90;7.50;102115.00;;;;5012761;27;93989;-69
2021/12/16 06:58:16;;;;;;;19.23;10.90;;;7.70;99.90;7.50;102121.00;;;;5009144;27;92872;-69
2021/12/16 07:00:46;;;;;;;20.30;12.20;;;7.60;99.90;7.50;102128.00;;;;5027233;27;93035;-68
2021/12/16 07:03:28;;;;;;;25.37;12.10;;;7.60;99.90;7.50;102122.00;;;;5029524;27;93387;-70
2021/12/16 07:05:56;;;;;;;23.03;11.90;;;7.60;99.90;7.50;102129.00;;;;5016570;27;92754;-70
2021/12/16 07:08:24;;;;;;;16.20;10.17;;;7.60;99.90;7.50;102131.00;;;;5025400;27;92816;-68
2021/12/16 07:10:54;;;;;;;19.30;10.60;;;7.60;99.90;7.50;102137.00;;;;5032791;27;92833;-69
2021/12/16 07:13:30;;;;;;;22.27;10.67;;;7.60;99.90;7.50;102129.00;;;;5032449;27;109367;-67
2021/12/16 07:15:58;;;;;;;18.53;10.70;;;7.70;99.90;7.50;102126.00;;;;5013746;27;94709;-68
2021/12/16 07:18:24;;;;;;;16.83;10.07;;;7.60;99.90;7.50;102137.00;;;;5025135;27;92873;-68
2021/12/16 07:20:50;;;;;;;15.30;9.87;;;7.60;99.90;7.50;102139.00;;;;5032695;27;94249;-68
2021/12/16 07:23:16;;;;;;;20.60;9.77;;;7.60;99.90;7.50;102141.00;;;;5031954;27;121898;-69
2021/12/16 07:25:42;;;;;;;18.67;10.17;;;7.60;99.90;7.50;102149.00;;;;5032069;27;110123;-70
2021/12/16 07:28:09;;;;;;;19.63;10.17;;;7.60;99.90;7.50;102147.00;;;;5031988;27;111133;-68
2021/12/16 07:30:42;;;;;;;18.33;10.30;;;7.60;99.90;7.50;102155.00;;;;5032892;27;93034;-70
2021/12/16 07:33:09;;;;;;;21.70;9.63;;;7.60;99.90;7.60;102156.00;;;;5013111;27;92988;-70
2021/12/16 07:35:37;;;;;;;18.40;10.60;;;7.60;99.90;7.60;102171.00;;;;5030589;27;93206;-68
2021/12/16 07:38:04;;;;;;;17.20;10.47;;;7.70;99.90;7.60;102165.00;;;;5032997;27;92404;-69
2021/12/16 07:40:31;;;;;;;15.00;9.00;;;7.70;99.90;7.60;102165.00;;;;4994264;27;93181;-70
2021/12/16 07:43:10;;;;;;;17.37;10.37;;;7.70;99.90;7.60;102169.00;;;;5023753;27;94169;-68
2021/12/16 07:45:42;;;;;;;17.07;8.93;;;7.70;99.90;7.60;102172.00;;;;5031893;27;93673;-71
2021/12/16 07:48:10;;;;;;;17.10;9.50;;;7.70;99.90;7.60;102164.00;;;;5032671;27;93229;-70
2021/12/16 07:50:38;;;;;;;13.77;9.00;;;7.70;99.90;7.60;102178.00;;;;5027755;27;92857;-69
2021/12/16 07:53:05;;;;;;;18.67;9.90;;;7.70;99.90;7.60;102172.00;;;;5029114;27;93909;-69
2021/12/16 07:55:31;;;;;;;20.50;11.37;;;7.70;99.90;7.60;102169.00;;;;5032560;27;93439;-71
2021/12/16 07:57:57;;;;;;;21.43;9.87;;;7.70;99.90;7.60;102161.00;;;;5031414;27;92921;-69
2021/12/16 08:00:33;;;;;;;21.67;10.90;;;8.10;99.90;7.60;102169.00;;;;5031550;27;109263;-69
2021/12/16 08:03:01;;;;;;;20.73;10.23;;;7.70;99.90;7.70;102166.00;;;;5030886;27;93061;-68
2021/12/16 08:05:32;;;;;;;17.73;10.27;;;7.70;99.90;7.70;102179.00;;;;5025978;27;106353;-68
2021/12/16 08:07:58;;;;;;;20.87;10.17;;;7.80;99.90;7.70;102185.00;;;;5012574;27;93099;-69
2021/12/16 08:10:24;;;;;;;12.30;9.10;;;7.80;99.90;7.70;102191.00;;;;5012485;27;93782;-69
2021/12/16 08:12:52;;;;;;;20.97;10.20;;;7.80;99.90;7.70;102192.00;;;;5032272;27;105273;-68
2021/12/16 08:15:18;;;;;;;18.17;9.40;;;7.90;99.90;7.70;102205.00;;;;5031207;27;94004;-67
2021/12/16 08:17:45;;;;;;;23.93;10.57;;;7.80;99.90;7.80;102194.00;;;;5031996;27;92940;-68
2021/12/16 08:20:16;;;;;;;22.20;11.77;;;7.90;99.90;7.80;102205.00;;;;5031352;27;95163;-69
2021/12/16 08:22:47;;;;;;;17.87;10.73;;;7.90;99.90;7.80;102193.00;;;;5013047;27;93018;-68
2021/12/16 08:25:14;;;;;;;17.63;10.40;;;7.90;99.90;7.80;102198.00;;;;5011579;27;93200;-67
2021/12/16 08:27:40;;;;;;;24.63;10.40;;;7.90;99.90;7.90;102210.00;;;;5032410;27;92305;-68
2021/12/16 08:30:11;;;;;;;23.73;10.97;;;7.90;99.90;7.90;102200.00;;;;5029252;27;93451;-71
2021/12/16 08:32:37;;;;;;;20.73;10.03;;;8.00;99.90;7.90;102202.00;;;;5031922;27;93678;-69
2021/12/16 08:35:06;;;;;;;22.60;11.40;;;8.00;99.90;8.00;102206.00;;;;5027215;27;93878;-69
2021/12/16 08:37:32;;;;;;;19.37;10.50;;;8.00;99.90;8.00;102202.00;;;;5031059;27;93069;-68
2021/12/16 08:39:58;;;;;;;18.67;10.40;;;8.10;99.90;8.00;102197.00;;;;5031769;27;94748;-68
2021/12/16 08:42:24;;;;;;;21.30;10.63;;;8.10;99.90;8.00;102205.00;;;;5011203;27;124890;-70
2021/12/16 08:44:50;;;;;;;16.53;10.80;;;8.10;99.90;8.00;102208.00;;;;5031047;27;120689;-69
2021/12/16 08:47:18;;;;;;;24.00;10.77;;;8.10;99.90;8.10;102216.00;;;;5030603;27;108429;-70
2021/12/16 08:49:46;;;;;;;17.90;9.93;;;8.10;99.90;8.10;102213.00;;;;5031466;27;92965;-68
2021/12/16 08:52:16;;;;;;;19.17;10.00;;;8.20;99.90;8.10;102230.00;;;;5031772;27;109251;-69
2021/12/16 08:54:43;;;;;;;19.23;10.73;;;8.20;99.90;8.20;102232.00;;;;5030397;27;104299;-69
2021/12/16 08:57:10;;;;;;;17.57;10.33;;;8.20;99.90;8.20;102235.00;;;;5030587;27;92885;-67
2021/12/16 08:59:37;;;;;;;15.87;9.17;;;8.30;99.90;8.20;102237.00;;;;5012622;27;93877;-67
2021/12/16 09:02:07;;;;;;;28.13;11.37;;;8.40;99.90;8.30;102237.00;;;;5010515;27;123188;-67
2021/12/16 09:04:36;;;;;;;21.67;11.40;;;8.50;99.90;8.30;102230.00;;;;5031609;27;93534;-68
2021/12/16 09:07:09;;;;;;;18.87;9.93;;;8.40;99.90;8.30;102242.00;;;;5030694;27;98944;-67
2021/12/16 09:09:37;;;;;;;15.40;9.83;;;8.40;99.90;8.30;102239.00;;;;5020268;27;95068;-67
2021/12/16 09:12:15;;;;;;;17.47;9.80;;;8.40;99.90;8.40;102253.00;;;;5027397;27;93216;-67
2021/12/16 09:14:43;;;;;;;19.07;10.07;;;8.40;99.90;8.40;102253.00;;;;5029286;27;93738;-67
2021/12/16 09:17:14;;;;;;;20.27;10.03;;;8.50;99.90;8.40;102257.00;;;;5031070;27;92126;-67
2021/12/16 09:19:45;;;;;;;16.10;10.00;;;8.50;99.90;8.40;102244.00;;;;5030982;27;92950;-69
2021/12/16 09:22:15;;;;;;;22.37;10.30;;;8.50;99.90;8.40;102244.00;;;;5010826;27;93729;-66
2021/12/16 09:24:41;;;;;;;19.30;10.63;;;8.50;99.90;8.40;102251.00;;;;5031199;27;94003;-66
2021/12/16 09:27:07;;;;;;;17.13;9.27;;;8.60;99.90;8.40;102255.00;;;;5024593;27;95171;-67
2021/12/16 09:29:34;;;;;;;13.83;9.30;;;8.50;99.90;8.50;102260.00;;;;5012124;27;93071;-66
2021/12/16 09:32:02;;;;;;;15.97;8.80;;;8.60;99.90;8.50;102252.00;;;;5031097;27;108201;-68
2021/12/16 09:34:28;;;;;;;18.70;9.87;;;8.50;99.90;8.50;102257.00;;;;5031878;27;93577;-68
2021/12/16 09:36:54;;;;;;;19.27;8.70;;;8.50;99.90;8.40;102253.00;;;;5012269;27;93077;-68
2021/12/16 09:39:23;;;;;;;23.77;10.40;;;8.50;99.90;8.40;102237.00;;;;5031112;27;109307;-67
2021/12/16 09:41:51;;;;;;;18.97;10.07;;;8.50;99.90;8.30;102247.00;;;;5030743;27;93045;-68
2021/12/16 09:44:18;;;;;;;13.93;7.63;;;8.40;99.90;8.30;102247.00;;;;5024962;27;92902;-68
2021/12/16 09:46:48;;;;;;;20.83;10.03;;;8.40;99.90;8.30;102248.00;;;;5031210;27;93290;-68
2021/12/16 09:49:15;;;;;;;23.90;11.80;;;8.40;99.90;8.20;102248.00;;;;5029680;27;93724;-67
2021/12/16 09:51:43;;;;;;;19.60;10.40;;;8.30;99.90;8.20;102248.00;;;;5029038;27;112275;-68
2021/12/16 09:54:14;;;;;;;19.83;11.70;;;8.30;99.90;8.20;102246.00;;;;5029775;27;93818;-70
2021/12/16 09:56:43;;;;;;;20.53;9.60;;;8.30;99.90;8.20;102245.00;;;;5023984;27;98037;-68
2021/12/16 09:59:13;;;;;;;14.60;9.27;;;8.30;99.90;8.20;102254.00;;;;5012254;27;92974;-68
2021/12/16 10:01:42;;;;;;;16.60;9.97;;;8.30;99.90;8.20;102246.00;;;;5030313;27;94386;-68
2021/12/16 10:04:13;;;;;;;19.00;9.80;;;8.30;99.90;8.20;102249.00;;;;5011499;27;92689;-67
2021/12/16 10:06:41;;;;;;;21.10;11.53;;;8.20;99.90;8.10;102237.00;;;;5028717;27;92510;-69
2021/12/16 10:09:10;;;;;;;19.63;10.97;;;8.30;99.90;8.10;102242.00;;;;4994708;27;92904;-68
2021/12/16 10:11:39;;;;;;;16.90;10.00;;;8.20;99.90;8.10;102248.00;;;;5030264;27;94289;-69
2021/12/16 10:19:23;;;;;;;32.87;11.90;;;8.20;99.90;8.10;102248.00;;;;5027493;27;92739;-69
2021/12/16 10:21:51;;;;;;;19.80;9.90;;;8.20;99.90;8.10;102254.00;;;;5028828;27;108561;-69
2021/12/16 10:24:23;;;;;;;20.77;10.30;;;8.20;99.90;8.10;102255.00;;;;5012017;27;92822;-68
2021/12/16 10:27:14;;;;;;;18.80;11.23;;;8.20;99.90;8.10;102256.00;;;;5029869;27;92726;-69
2021/12/16 10:29:48;;;;;;;11.53;8.90;;;8.20;99.90;8.10;102257.00;;;;4988306;27;92865;-68
2021/12/16 10:32:39;;;;;;;21.37;11.67;;;8.20;99.90;8.10;102245.00;;;;5030051;27;92010;-68
2021/12/16 10:35:19;;;;;;;21.53;10.47;;;8.20;99.90;8.10;102250.00;;;;5011459;27;93005;-71
2021/12/16 10:37:51;;;;;;;15.87;9.30;;;8.20;99.90;8.10;102270.00;;;;5010278;27;99420;-68
2021/12/16 10:40:48;;;;;;;19.20;9.90;;;8.20;99.90;8.10;102276.00;;;;5030032;27;93794;-70
2021/12/16 10:43:22;;;;;;;22.40;10.97;;;8.30;99.90;8.10;102285.00;;;;5010484;27;107921;-71
2021/12/16 10:45:56;;;;;;;20.67;9.53;;;8.20;99.90;8.10;102290.00;;;;5029514;27;93065;-68
2021/12/16 10:48:44;;;;;;;17.97;9.20;;;8.30;99.90;8.10;102280.00;;;;5030959;27;92973;-68
2021/12/16 10:51:30;;;;;;;17.03;9.63;;;8.30;99.90;8.10;102272.00;;;;5011049;27;93285;-70
2021/12/16 10:53:58;;;;;;;21.27;9.37;;;8.30;99.90;8.20;102273.00;;;;5029312;27;93034;-69
2021/12/16 10:56:32;;;;;;;16.00;9.17;;;8.30;99.90;8.20;102286.00;;;;5030220;27;93675;-69
2021/12/16 10:59:06;;;;;;;16.07;10.57;;;8.30;99.90;8.20;102285.00;;;;5030314;27;92130;-69
2021/12/16 11:01:44;;;;;;;23.00;10.50;;;8.40;99.90;8.30;102279.00;;;;5029678;27;92999;-69
2021/12/16 11:04:33;;;;;;;15.40;8.53;;;8.30;99.90;8.30;102284.00;;;;5027914;27;93184;-68
2021/12/16 11:07:09;;;;;;;13.37;9.00;;;8.40;99.90;8.30;102264.00;;;;5028508;27;103898;-71
2021/12/16 11:09:48;;;;;;;13.30;8.57;;;8.40;99.90;8.30;102273.00;;;;5011288;27;92836;-71
2021/12/16 11:12:22;;;;;;;16.37;8.90;;;8.50;99.90;8.30;102262.00;;;;5029390;27;92959;-69
2021/12/16 11:15:19;;;;;;;17.90;8.93;;;8.50;99.90;8.30;102286.00;;;;5011607;27;93169;-70
2021/12/16 11:17:57;;;;;;;12.80;7.33;;;8.40;99.90;8.30;102283.00;;;;5025804;27;93025;-70
2021/12/16 11:20:41;;;;;;;13.37;8.13;;;8.50;99.90;8.30;102293.00;;;;5010312;27;96140;-71
2021/12/16 11:23:18;;;;;;;14.07;7.70;;;8.50;99.90;8.40;102295.00;;;;5030170;27;92840;-70
2021/12/16 11:26:03;;;;;;;15.53;8.67;;;8.40;99.90;8.40;102302.00;;;;5025774;27;93405;-70
2021/12/16 11:28:37;;;;;;;13.83;8.03;;;8.50;99.90;8.40;102306.00;;;;5011024;27;92916;-72
2021/12/16 11:31:11;;;;;;;12.77;8.27;;;8.50;99.90;8.40;102311.00;;;;5026843;27;94218;-71
2021/12/16 11:33:49;;;;;;;17.87;7.57;;;8.50;99.90;8.40;102299.00;;;;5002000;27;93881;-72
2021/12/16 11:36:29;;;;;;;13.67;7.37;;;8.50;99.90;8.40;102272.00;;;;5003175;27;93376;-70
2021/12/16 11:39:00;;;;;;;11.93;7.97;;;8.50;99.90;8.40;102270.00;;;;5027587;27;93807;-72
2021/12/16 11:41:43;;;;;;;13.73;7.60;;;8.50;99.90;8.40;102278.00;;;;5002542;27;92756;-72
2021/12/16 11:44:33;;;;;;;16.53;7.80;;;8.50;99.90;8.40;102267.00;;;;5010924;27;92906;-71
2021/12/16 11:47:10;;;;;;;18.73;8.63;;;8.50;99.90;8.40;102268.00;;;;5027527;27;93951;-69
2021/12/16 11:49:42;;;;;;;10.80;6.93;;;8.50;99.90;8.40;102270.00;;;;4991208;27;94131;-71
2021/12/16 11:52:28;;;;;;;15.10;8.20;;;8.50;99.90;8.40;102266.00;;;;5032313;27;92331;-70
2021/12/16 11:55:08;;;;;;;12.57;6.97;;;8.50;99.90;8.40;102274.00;;;;5028376;27;92908;-71
2021/12/16 11:57:42;;;;;;;15.63;7.50;;;8.70;99.90;8.40;102270.00;;;;5024968;27;107160;-71
2021/12/16 12:00:21;;;;;;;15.70;7.03;;;8.50;99.90;8.40;102272.00;;;;5013278;27;93908;-68
2021/12/16 12:02:48;;;;;;;14.30;7.60;;;8.50;99.90;8.40;102279.00;;;;5027203;27;92901;-71
2021/12/16 12:05:20;;;;;;;12.77;7.03;;;8.50;99.90;8.40;102282.00;;;;5033157;27;93080;-72
2021/12/16 12:07:58;;;;;;;13.77;7.00;;;8.50;99.90;8.40;102288.00;;;;5027110;27;93036;-68
2021/12/16 12:10:51;;;;;;;11.30;7.13;;;8.60;99.90;8.40;102275.00;;;;5026357;27;92772;-69
2021/12/16 12:13:42;;;;;;;15.47;7.77;;;8.60;99.90;8.40;102275.00;;;;5028657;27;93074;-68
2021/12/16 12:16:23;;;;;;;11.30;7.00;;;8.60;99.90;8.40;102294.00;;;;5028070;27;92979;-69
2021/12/16 12:18:59;;;;;;;14.43;6.90;;;8.70;99.90;8.40;102295.00;;;;5031618;27;111489;-69
2021/12/16 12:21:56;;;;;;;17.93;8.40;;;8.60;99.90;8.40;102286.00;;;;5031833;27;93164;-69
2021/12/16 12:24:38;;;;;;;9.40;6.30;;;8.60;99.90;8.40;102281.00;;;;5014518;27;93016;-71
2021/12/16 12:27:12;;;;;;;15.03;8.37;;;8.50;99.90;8.40;102289.00;;;;5012337;27;93703;-69
2021/12/16 12:29:56;;;;;;;9.90;6.67;;;8.60;99.90;8.40;102284.00;;;;5006607;27;92980;-69
2021/12/16 12:32:36;;;;;;;13.27;7.30;;;8.60;99.90;8.50;102276.00;;;;4995777;27;95065;-69
2021/12/16 12:35:08;;;;;;;11.17;7.00;;;8.60;99.90;8.50;102286.00;;;;5007660;27;92894;-71
2021/12/16 12:37:40;;;;;;;11.70;7.03;;;8.60;99.90;8.50;102289.00;;;;5029045;27;92564;-69
2021/12/16 12:40:19;;;;;;;10.90;6.80;;;8.60;99.90;8.50;102300.00;;;;5032299;27;93409;-69
2021/12/16 12:42:47;;;;;;;14.17;6.83;;;8.60;99.90;8.50;102292.00;;;;5012905;27;93043;-70
2021/12/16 12:45:23;;;;;;;11.53;7.37;;;8.70;99.90;8.50;102283.00;;;;5035357;27;92335;-70
2021/12/16 12:47:54;;;;;;;10.43;7.23;;;8.60;99.90;8.60;102285.00;;;;5031901;27;96556;-71
2021/12/16 12:50:26;;;;;;;10.23;6.63;;;8.60;99.90;8.60;102297.00;;;;5012168;27;92942;-70
2021/12/16 12:52:56;;;;;;;12.40;7.57;;;8.60;99.90;8.60;102295.00;;;;5030511;27;109121;-69
2021/12/16 12:55:31;;;;;;;13.23;7.43;;;8.70;99.90;8.60;102302.00;;;;5033390;27;93154;-68
2021/12/16 12:58:10;;;;;;;12.83;7.33;;;8.70;99.90;8.60;102292.00;;;;5032405;27;92838;-71
2021/12/16 13:00:59;;;;;;;11.57;6.90;;;8.70;99.90;8.70;102300.00;;;;5024009;27;94240;-69
2021/12/16 13:03:32;;;;;;;13.67;6.60;;;8.70;99.90;8.70;102303.00;;;;5033561;27;93358;-70
2021/12/16 13:06:06;;;;;;;10.37;6.57;;;8.80;99.90;8.70;102297.00;;;;5013651;27;93160;-69
2021/12/16 13:08:38;;;;;;;13.50;7.33;;;8.60;99.90;8.70;102290.00;;;;5024343;27;94909;-69
2021/12/16 13:11:21;;;;;;;11.33;6.50;;;8.80;99.90;8.70;102295.00;;;;5031765;27;93460;-69
2021/12/16 13:14:22;;;;;;;14.73;6.13;;;8.80;99.90;8.70;102304.00;;;;5005708;27;98334;-70
2021/12/16 13:23:28;;;;;;;14.63;7.43;;;8.80;99.90;8.70;102309.00;;;;5028581;27;93067;-70
2021/12/16 13:26:02;;;;;;;13.20;6.07;;;8.80;99.90;8.70;102308.00;;;;5031288;27;92866;-67
2021/12/16 13:28:47;;;;;;;11.97;5.93;;;8.80;99.90;8.60;102298.00;;;;5029650;27;92959;-67
2021/12/16 13:31:59;;;;;;;8.27;5.30;;;8.70;99.90;8.60;102305.00;;;;4999320;27;93224;-71
2021/12/16 13:34:59;;;;;;;13.03;6.90;;;8.70;99.90;8.60;102320.00;;;;5001845;27;92988;-71
2021/12/16 13:37:45;;;;;;;8.27;5.10;;;8.80;99.90;8.60;102314.00;;;;5022616;27;93040;-69